Time;durP1;ratioP1;P1;durP2;ratioP2;P2;SDS_P1;SDS_P2;PMS_P1;PMS_P2;Temp;Humidity;BMP_temperature;BMP_pressure;BME280_temperature;BME280_humidity;BME280_pressure;Samples;Min_cycle;Max_cycle;Signal;HPM_P1;HPM_P2
2022/03/22 00:00:29;;;;;;;21.48;9.48;;;-1.00;99.90;;;;;;5094268;28;20123;-62
2022/03/22 00:02:55;;;;;;;26.08;9.10;;;-1.00;99.90;;;;;;5095601;28;20070;-62
2022/03/22 00:05:21;;;;;;;20.20;9.88;;;-1.00;99.90;;;;;;5094566;28;20427;-63
2022/03/22 00:07:47;;;;;;;19.35;9.20;;;-1.10;99.90;;;;;;5095193;28;20495;-63
2022/03/22 00:10:14;;;;;;;17.00;7.82;;;-1.10;99.90;;;;;;5095112;28;20032;-62
2022/03/22 00:12:40;;;;;;;23.98;9.45;;;-1.10;99.90;;;;;;5093822;28;20032;-62
2022/03/22 00:15:06;;;;;;;19.20;9.00;;;0.40;99.90;;;;;;5095052;28;20426;-62
2022/03/22 00:17:32;;;;;;;19.63;7.97;;;-1.10;99.90;;;;;;5094959;28;20028;-62
2022/03/22 00:19:57;;;;;;;20.77;8.75;;;-1.20;99.90;;;;;;5093701;28;20431;-62
2022/03/22 00:22:26;;;;;;;19.20;8.27;;;0.00;99.90;;;;;;5093632;28;20070;-62
2022/03/22 00:24:52;;;;;;;19.77;8.07;;;-0.40;99.90;;;;;;5094600;28;20032;-62
2022/03/22 00:27:17;;;;;;;17.13;7.68;;;-1.20;99.90;;;;;;5094532;28;20054;-62
2022/03/22 00:29:43;;;;;;;20.85;8.38;;;-1.20;99.90;;;;;;5093393;28;20387;-62
2022/03/22 00:32:09;;;;;;;17.98;8.20;;;-1.20;99.90;;;;;;5093819;28;20028;-62
2022/03/22 00:34:44;;;;;;;20.13;8.38;;;-1.20;99.90;;;;;;5093343;28;20111;-62
2022/03/22 00:37:13;;;;;;;19.42;8.07;;;-1.20;99.90;;;;;;5094758;28;20403;-62
2022/03/22 00:39:39;;;;;;;19.67;8.18;;;-1.20;99.90;;;;;;5094706;28;20064;-62
2022/03/22 00:42:05;;;;;;;14.70;7.20;;;0.60;99.90;;;;;;5093298;28;20066;-62
2022/03/22 00:44:30;;;;;;;11.02;6.40;;;-1.30;99.90;;;;;;5094473;28;20479;-62
2022/03/22 00:46:56;;;;;;;18.83;7.20;;;-1.30;99.90;;;;;;5093202;28;20184;-62
2022/03/22 00:49:22;;;;;;;20.00;7.35;;;-1.30;99.90;;;;;;5094360;28;20036;-62
2022/03/22 00:51:47;;;;;;;15.75;7.20;;;-1.40;99.90;;;;;;5092530;28;20028;-62
2022/03/22 00:54:13;;;;;;;16.98;6.75;;;-1.40;99.90;;;;;;5093068;28;20024;-62
2022/03/22 00:56:39;;;;;;;16.38;6.68;;;-1.40;99.90;;;;;;5094306;28;20025;-62
2022/03/22 01:01:49;;;;;;;20.40;6.82;;;-0.40;99.90;;;;;;5094006;28;20113;-62
2022/03/22 01:04:15;;;;;;;16.30;7.00;;;-0.90;99.90;;;;;;5093929;28;20060;-62
2022/03/22 01:06:41;;;;;;;15.40;6.90;;;-1.50;99.90;;;;;;5093453;28;20073;-63
2022/03/22 01:09:07;;;;;;;14.60;7.45;;;0.80;99.90;;;;;;5093619;28;20044;-62
2022/03/22 01:11:33;;;;;;;14.90;7.03;;;-1.50;99.90;;;;;;5092569;28;20070;-62
2022/03/22 01:14:00;;;;;;;20.25;7.30;;;1.10;99.90;;;;;;5094066;28;20032;-62
2022/03/22 01:16:25;;;;;;;14.20;6.63;;;-1.40;99.90;;;;;;5094069;28;20499;-62
2022/03/22 01:18:51;;;;;;;19.27;6.53;;;-1.40;99.90;;;;;;5092784;28;20066;-62
2022/03/22 01:21:17;;;;;;;13.40;6.93;;;0.10;99.90;;;;;;5093970;28;20024;-62
2022/03/22 01:23:42;;;;;;;15.25;6.78;;;-1.40;99.90;;;;;;5094260;28;20366;-62
2022/03/22 01:26:09;;;;;;;14.77;6.55;;;0.50;99.90;;;;;;5092740;28;20416;-62
2022/03/22 01:28:34;;;;;;;15.38;6.30;;;0.60;99.90;;;;;;5092650;28;20028;-63
2022/03/22 01:31:00;;;;;;;14.48;7.20;;;-0.10;99.90;;;;;;5092557;28;20032;-62
2022/03/22 01:33:26;;;;;;;14.27;6.90;;;-1.40;99.90;;;;;;5093856;28;20040;-63
2022/03/22 01:35:51;;;;;;;15.98;6.75;;;-1.40;99.90;;;;;;5092245;28;20039;-63
2022/03/22 01:38:17;;;;;;;15.25;7.28;;;-1.50;99.90;;;;;;5093553;28;20028;-62
2022/03/22 01:40:43;;;;;;;13.80;6.63;;;-0.30;99.90;;;;;;5093541;28;20032;-63
2022/03/22 01:43:08;;;;;;;15.35;7.00;;;-1.50;99.90;;;;;;5093811;28;20032;-62
2022/03/22 01:45:34;;;;;;;19.27;7.30;;;-1.40;99.90;;;;;;5093803;28;20099;-63
2022/03/22 01:48:03;;;;;;;21.25;7.47;;;-1.50;99.90;;;;;;5094025;28;20460;-63
2022/03/22 01:50:29;;;;;;;15.77;6.75;;;-1.40;99.90;;;;;;5092089;28;20035;-62
2022/03/22 01:52:57;;;;;;;16.45;6.68;;;-0.20;99.90;;;;;;5093681;28;20031;-63
2022/03/22 01:55:24;;;;;;;13.73;6.47;;;-1.50;99.90;;;;;;5092417;28;20483;-62
2022/03/22 01:57:49;;;;;;;14.20;6.50;;;-1.60;99.90;;;;;;5093634;28;20461;-62
2022/03/22 02:00:17;;;;;;;17.85;6.30;;;-0.50;99.90;;;;;;5093605;28;20067;-62
2022/03/22 02:05:54;;;;;;;13.30;6.30;;;-1.50;99.90;;;;;;5054911;28;20031;-62
2022/03/22 02:08:29;;;;;;;16.08;7.22;;;-0.90;99.90;;;;;;5091365;28;20044;-62
2022/03/22 02:10:56;;;;;;;14.38;7.10;;;-1.50;99.90;;;;;;5097585;28;20032;-62
2022/03/22 02:13:22;;;;;;;15.45;6.90;;;-1.30;99.90;;;;;;5097369;28;20044;-62
2022/03/22 02:15:56;;;;;;;14.32;6.93;;;-1.10;99.90;;;;;;5096050;28;20024;-62
2022/03/22 02:18:21;;;;;;;19.35;6.88;;;-1.50;99.90;;;;;;5096838;28;20063;-61
2022/03/22 02:20:47;;;;;;;12.43;6.20;;;-0.10;99.90;;;;;;5097535;28;20064;-63
2022/03/22 02:23:47;;;;;;;14.98;6.90;;;-1.30;99.90;;;;;;5097249;28;20024;-63
2022/03/22 02:26:12;;;;;;;13.90;6.88;;;-1.60;99.90;;;;;;5097234;28;20027;-62
2022/03/22 02:28:38;;;;;;;18.10;7.05;;;-1.50;99.90;;;;;;5097176;28;20349;-62
2022/03/22 02:31:04;;;;;;;13.90;6.40;;;-1.60;99.90;;;;;;5095663;28;20032;-62
2022/03/22 02:33:29;;;;;;;15.02;6.97;;;-1.70;99.90;;;;;;5097045;28;20039;-62
2022/03/22 02:35:55;;;;;;;13.50;6.38;;;-1.70;99.90;;;;;;5095712;28;20031;-63
2022/03/22 02:38:20;;;;;;;18.00;7.45;;;-1.70;99.90;;;;;;5096951;28;20106;-63
2022/03/22 02:40:46;;;;;;;14.65;6.75;;;0.10;99.90;;;;;;5095581;28;20430;-62
2022/03/22 02:43:12;;;;;;;14.20;6.68;;;-1.70;99.90;;;;;;5095624;28;20039;-62
2022/03/22 02:45:38;;;;;;;13.40;6.45;;;0.50;99.90;;;;;;5096493;28;20059;-62
2022/03/22 02:48:03;;;;;;;12.55;6.03;;;-1.60;99.90;;;;;;5095415;28;20070;-63
2022/03/22 02:50:29;;;;;;;13.23;6.78;;;-1.70;99.90;;;;;;5096762;28;20036;-62
2022/03/22 02:52:55;;;;;;;12.15;6.20;;;-1.70;99.90;;;;;;5096483;28;20038;-62
2022/03/22 02:55:21;;;;;;;16.15;6.50;;;-1.70;99.90;;;;;;5095656;28;20054;-62
2022/03/22 02:57:47;;;;;;;12.93;6.30;;;-1.70;99.90;;;;;;5096551;28;20028;-62
2022/03/22 03:00:14;;;;;;;14.07;6.65;;;-1.70;99.90;;;;;;5096657;28;20024;-62
2022/03/22 03:02:46;;;;;;;15.95;7.07;;;-1.80;99.90;;;;;;5095171;28;20456;-62
2022/03/22 03:05:12;;;;;;;11.65;6.47;;;-1.80;99.90;;;;;;5095333;28;20047;-62
2022/03/22 03:07:38;;;;;;;15.45;6.82;;;-1.20;99.90;;;;;;5096354;28;20496;-62
2022/03/22 03:10:05;;;;;;;13.23;6.25;;;-1.90;99.90;;;;;;5096013;28;20028;-62
2022/03/22 03:12:31;;;;;;;14.48;6.65;;;-1.90;99.90;;;;;;5096262;28;20040;-62
2022/03/22 03:14:57;;;;;;;16.58;6.75;;;-0.30;99.90;;;;;;5094010;28;20024;-62
2022/03/22 03:17:22;;;;;;;13.30;6.43;;;0.20;99.90;;;;;;5096179;28;20028;-62
2022/03/22 03:19:48;;;;;;;22.30;6.88;;;-1.80;99.90;;;;;;5096734;28;20440;-62
2022/03/22 03:22:14;;;;;;;13.95;6.43;;;-1.40;99.90;;;;;;5094839;28;20024;-62
2022/03/22 03:24:39;;;;;;;12.00;6.28;;;-1.80;99.90;;;;;;5095752;28;20051;-63
2022/03/22 03:27:05;;;;;;;15.00;6.63;;;-1.80;99.90;;;;;;5096137;28;20021;-62
2022/03/22 03:29:31;;;;;;;19.58;6.50;;;-1.80;99.90;;;;;;5095912;28;20039;-63
2022/03/22 03:31:56;;;;;;;13.52;5.88;;;-1.80;99.90;;;;;;5095974;28;20420;-65
2022/03/22 03:34:22;;;;;;;15.45;6.43;;;-1.80;99.90;;;;;;5096233;28;20093;-63
2022/03/22 03:36:48;;;;;;;14.70;6.05;;;-0.20;99.90;;;;;;5094553;28;20353;-67
2022/03/22 03:39:14;;;;;;;14.25;6.30;;;-0.90;99.90;;;;;;5094448;28;20036;-62
2022/03/22 03:41:56;;;;;;;15.07;6.57;;;-1.90;99.90;;;;;;5095775;28;20028;-62
2022/03/22 03:47:13;;;;;;;14.25;7.45;;;-1.90;99.90;;;;;;5095485;28;20106;-63
2022/03/22 03:49:43;;;;;;;15.05;6.53;;;-1.90;99.90;;;;;;5095607;28;20031;-63
2022/03/22 03:52:15;;;;;;;12.75;6.32;;;-1.90;99.90;;;;;;5095542;28;20034;-63
2022/03/22 03:54:41;;;;;;;22.92;7.10;;;-2.00;99.90;;;;;;5096071;28;20024;-62
2022/03/22 03:57:07;;;;;;;12.68;6.05;;;-2.00;99.90;;;;;;5095826;28;20111;-62
2022/03/22 03:59:34;;;;;;;10.77;5.28;;;-1.90;99.90;;;;;;5095023;28;20059;-62
2022/03/22 04:02:01;;;;;;;13.30;6.20;;;-2.00;99.90;;;;;;5095743;28;20024;-62
2022/03/22 04:04:26;;;;;;;14.85;6.82;;;-0.80;99.90;;;;;;5094017;28;20059;-62
2022/03/22 04:06:52;;;;;;;11.63;5.53;;;-0.30;99.90;;;;;;5095258;28;20031;-62
2022/03/22 04:09:18;;;;;;;15.35;5.97;;;-2.00;99.90;;;;;;5095598;28;20056;-62
2022/03/22 04:11:45;;;;;;;13.00;5.60;;;-0.90;99.90;;;;;;5095116;28;20025;-62
2022/03/22 04:14:11;;;;;;;11.77;6.07;;;-2.00;99.90;;;;;;5095369;28;20032;-62
2022/03/22 04:16:37;;;;;;;14.35;5.88;;;-1.90;99.90;;;;;;5095089;28;20081;-64
2022/03/22 04:19:05;;;;;;;9.50;5.15;;;-1.70;99.90;;;;;;5094674;28;20484;-63
2022/03/22 04:21:34;;;;;;;10.07;5.93;;;-2.00;99.90;;;;;;5093714;28;20077;-62
2022/03/22 04:24:05;;;;;;;12.60;6.15;;;-2.00;99.90;;;;;;5094770;28;20044;-63
2022/03/22 04:26:35;;;;;;;12.65;6.63;;;-2.00;99.90;;;;;;5094182;28;20020;-63
2022/03/22 04:32:46;;;;;;;11.90;6.15;;;-2.00;99.90;;;;;;5094825;28;20168;-62
2022/03/22 04:34:42;;;;;;;17.73;6.85;;;-2.00;99.90;;;;;;5085502;28;20134;-62
2022/03/22 04:37:12;;;;;;;15.57;6.53;;;-1.90;99.90;;;;;;5094685;28;20032;-63
2022/03/22 04:39:39;;;;;;;11.60;6.43;;;-2.00;99.90;;;;;;5094859;28;20024;-62
2022/03/22 04:42:06;;;;;;;16.23;5.75;;;-2.00;99.90;;;;;;5094577;28;20419;-62
2022/03/22 04:44:32;;;;;;;15.68;6.88;;;-2.10;99.90;;;;;;5093617;28;20051;-62
2022/03/22 04:46:58;;;;;;;14.40;6.07;;;-2.10;99.90;;;;;;5094499;28;20036;-62
2022/03/22 04:49:25;;;;;;;13.63;6.40;;;-0.30;99.90;;;;;;5094337;28;20353;-62
2022/03/22 04:57:19;;;;;;;11.88;6.00;;;-1.10;99.90;;;;;;5094535;28;20031;-62
2022/03/22 04:59:45;;;;;;;17.33;6.22;;;-2.10;99.90;;;;;;5093961;28;20039;-62
2022/03/22 05:02:11;;;;;;;14.25;6.20;;;-0.20;99.90;;;;;;5094283;28;20103;-62
2022/03/22 05:04:37;;;;;;;14.13;6.85;;;-2.10;99.90;;;;;;5093924;28;20034;-61
2022/03/22 05:07:04;;;;;;;11.85;6.00;;;-1.70;99.90;;;;;;5093109;28;20426;-62
2022/03/22 05:09:29;;;;;;;18.25;6.75;;;-2.10;99.90;;;;;;5094320;28;20523;-61
2022/03/22 05:11:59;;;;;;;16.98;6.55;;;-2.10;99.90;;;;;;5092835;28;20063;-61
2022/03/22 05:14:25;;;;;;;12.95;6.43;;;-2.10;99.90;;;;;;5094221;28;20119;-62
2022/03/22 05:16:51;;;;;;;13.05;6.05;;;0.20;99.90;;;;;;5094215;28;20055;-62
2022/03/22 05:19:18;;;;;;;19.92;7.93;;;-2.10;99.90;;;;;;5093792;28;20524;-62
2022/03/22 05:21:44;;;;;;;16.13;7.55;;;-2.10;99.90;;;;;;5092742;28;20372;-61
2022/03/22 05:24:11;;;;;;;18.40;7.72;;;-1.70;99.90;;;;;;5093668;28;20115;-63
2022/03/22 05:26:36;;;;;;;14.00;6.60;;;-2.00;99.90;;;;;;5093928;28;20050;-63
2022/03/22 05:29:05;;;;;;;17.98;8.02;;;-0.40;99.90;;;;;;5092720;28;20028;-64
2022/03/22 05:31:31;;;;;;;;;;;-1.90;99.90;;;;;;5094236;28;20032;-62
2022/03/22 05:33:58;;;;;;;17.02;7.45;;;-1.50;99.90;;;;;;5094078;28;20057;-62
2022/03/22 05:36:24;;;;;;;18.38;8.15;;;-1.90;99.90;;;;;;5093812;28;20035;-62
2022/03/22 05:38:49;;;;;;;20.33;9.10;;;-1.90;99.90;;;;;;5096590;28;20032;-62
2022/03/22 05:41:15;;;;;;;23.30;8.00;;;-1.80;99.90;;;;;;5098056;28;20109;-62
2022/03/22 05:43:42;;;;;;;19.33;8.45;;;-1.80;99.90;;;;;;5098093;28;20021;-62
2022/03/22 05:46:09;;;;;;;15.85;7.65;;;-1.80;99.90;;;;;;5096640;28;20028;-62
2022/03/22 05:48:38;;;;;;;16.25;7.80;;;-1.70;99.90;;;;;;5097846;28;20024;-62
2022/03/22 05:51:04;;;;;;;14.38;6.78;;;-1.60;99.90;;;;;;5097743;28;20063;-62
2022/03/22 05:53:30;;;;;;;17.77;7.75;;;-1.20;99.90;;;;;;5097759;28;20110;-62
2022/03/22 05:55:55;;;;;;;22.25;7.50;;;-1.50;99.90;;;;;;5097734;28;20103;-62
2022/03/22 05:58:21;;;;;;;16.15;6.68;;;-1.10;99.90;;;;;;5097384;28;20112;-62
2022/03/22 06:00:47;;;;;;;22.83;8.10;;;-1.20;99.90;;;;;;5096396;28;20031;-62
2022/03/22 06:03:13;;;;;;;20.02;7.93;;;-0.90;99.90;;;;;;5096321;28;20024;-63
2022/03/22 06:05:39;;;;;;;21.20;8.27;;;-0.40;99.90;;;;;;5096226;28;20082;-62
2022/03/22 06:08:05;;;;;;;14.98;7.80;;;0.10;99.90;;;;;;5095872;28;20048;-62
2022/03/22 06:10:31;;;;;;;18.80;8.48;;;0.50;99.90;;;;;;5097447;28;20089;-62
2022/03/22 06:12:57;;;;;;;16.58;8.65;;;0.80;99.90;;;;;;5097311;28;20032;-62
2022/03/22 06:15:24;;;;;;;19.55;8.45;;;1.30;99.90;;;;;;5097368;28;20023;-62
2022/03/22 06:18:01;;;;;;;20.38;8.70;;;1.70;99.90;;;;;;5097361;28;20020;-62
2022/03/22 06:20:31;;;;;;;18.02;8.55;;;2.10;99.90;;;;;;5097278;28;20063;-63
2022/03/22 06:22:57;;;;;;;19.38;9.70;;;2.50;99.90;;;;;;5097180;28;20048;-63
2022/03/22 06:25:23;;;;;;;22.95;9.93;;;2.90;99.00;;;;;;5096061;28;20024;-62
2022/03/22 06:27:51;;;;;;;19.15;9.38;;;3.30;97.60;;;;;;5095814;28;20024;-62
2022/03/22 06:30:18;;;;;;;20.55;9.93;;;3.80;95.80;;;;;;5096724;28;20069;-62
2022/03/22 06:32:49;;;;;;;18.15;11.13;;;4.10;94.50;;;;;;5097265;28;20107;-62
2022/03/22 06:35:16;;;;;;;22.00;11.00;;;4.40;91.50;;;;;;5095706;28;20031;-63
2022/03/22 06:37:43;;;;;;;19.10;10.40;;;4.70;90.60;;;;;;5096985;28;20471;-62
2022/03/22 06:40:10;;;;;;;18.98;10.43;;;5.10;85.40;;;;;;5096650;28;20024;-62
2022/03/22 06:42:36;;;;;;;21.38;10.95;;;5.40;78.00;;;;;;5095743;28;20027;-63
2022/03/22 06:45:05;;;;;;;19.73;10.30;;;5.60;75.60;;;;;;5097084;28;20028;-63
2022/03/22 06:47:32;;;;;;;24.35;11.52;;;6.00;72.30;;;;;;5096944;28;20031;-62
2022/03/22 06:49:58;;;;;;;18.33;10.43;;;6.40;67.10;;;;;;5094519;28;20036;-62
2022/03/22 06:52:24;;;;;;;17.83;10.25;;;6.80;62.90;;;;;;5096645;28;20035;-62
2022/03/22 06:54:50;;;;;;;21.88;11.77;;;7.10;59.60;;;;;;5096414;28;20028;-62
2022/03/22 06:57:15;;;;;;;18.55;11.10;;;7.40;57.40;;;;;;5095255;28;20055;-63
2022/03/22 07:00:00;;;;;;;22.58;11.15;;;7.50;55.60;;;;;;5095228;28;20031;-62
2022/03/22 07:02:26;;;;;;;16.80;11.00;;;7.80;52.70;;;;;;5095303;28;20036;-63
2022/03/22 07:04:52;;;;;;;21.65;11.52;;;8.10;51.30;;;;;;5096753;28;20036;-62
2022/03/22 07:07:18;;;;;;;19.52;11.25;;;8.30;49.80;;;;;;5096162;28;20032;-64
2022/03/22 07:09:45;;;;;;;16.92;10.70;;;8.50;48.50;;;;;;5096468;28;20095;-62
2022/03/22 07:12:11;;;;;;;18.80;11.00;;;8.80;46.60;;;;;;5095011;28;20066;-63
2022/03/22 07:14:40;;;;;;;17.73;11.05;;;9.00;46.00;;;;;;5095168;28;20064;-63
2022/03/22 07:17:07;;;;;;;22.40;11.32;;;9.30;45.70;;;;;;5094930;28;20456;-63
2022/03/22 07:19:34;;;;;;;18.85;11.80;;;9.70;44.80;;;;;;5096208;28;20023;-63
2022/03/22 07:22:01;;;;;;;18.73;11.88;;;9.90;43.20;;;;;;5094474;28;20024;-63
2022/03/22 07:24:27;;;;;;;21.98;12.13;;;10.30;41.90;;;;;;5094690;28;20028;-63
2022/03/22 07:26:53;;;;;;;16.40;10.80;;;10.40;40.80;;;;;;5094730;28;20101;-63
2022/03/22 07:29:18;;;;;;;17.20;11.05;;;10.50;40.00;;;;;;5094528;28;20024;-63
2022/03/22 07:31:44;;;;;;;21.73;11.90;;;10.70;40.10;;;;;;5096022;28;20030;-62
2022/03/22 07:34:12;;;;;;;18.48;11.40;;;10.90;39.50;;;;;;5095895;28;20404;-63
2022/03/22 07:36:39;;;;;;;17.63;11.25;;;11.00;38.90;;;;;;5095066;28;20077;-63
2022/03/22 07:39:06;;;;;;;17.77;11.05;;;11.10;38.50;;;;;;5095774;28;20097;-63
2022/03/22 07:41:33;;;;;;;15.18;10.70;;;11.20;38.70;;;;;;5095856;28;20445;-62
2022/03/22 07:43:58;;;;;;;16.55;11.30;;;11.40;37.30;;;;;;5095643;28;20031;-63
2022/03/22 07:46:24;;;;;;;17.85;10.43;;;11.60;36.90;;;;;;5095525;28;20106;-63
2022/03/22 07:48:51;;;;;;;17.73;11.80;;;11.70;36.60;;;;;;5094244;28;20024;-63
2022/03/22 07:54:02;;;;;;;16.65;10.63;;;11.60;36.30;;;;;;5095155;28;20082;-63
2022/03/22 07:56:28;;;;;;;23.45;11.65;;;11.70;36.50;;;;;;5095321;28;20031;-63
2022/03/22 07:58:53;;;;;;;18.25;11.63;;;12.00;36.00;;;;;;5095064;28;20024;-63
2022/03/22 08:01:19;;;;;;;18.10;11.30;;;12.10;35.40;;;;;;5093854;28;20036;-63
2022/03/22 08:03:45;;;;;;;18.65;11.60;;;12.30;35.50;;;;;;5094021;28;20519;-63
2022/03/22 08:06:11;;;;;;;16.70;10.77;;;12.30;35.00;;;;;;5094019;28;20099;-63
2022/03/22 08:08:37;;;;;;;17.10;11.27;;;12.40;34.80;;;;;;5094973;28;20052;-63
2022/03/22 08:11:06;;;;;;;15.02;11.07;;;12.80;34.60;;;;;;5094869;28;20024;-63
2022/03/22 08:13:34;;;;;;;19.83;11.95;;;13.10;33.90;;;;;;5095361;28;20047;-63
2022/03/22 08:16:00;;;;;;;17.83;10.93;;;13.20;33.40;;;;;;5106608;28;20036;-63
2022/03/22 08:18:25;;;;;;;17.80;11.38;;;13.30;33.10;;;;;;5113390;28;20072;-62
2022/03/22 08:20:51;;;;;;;20.35;12.23;;;13.50;32.60;;;;;;5098886;28;20093;-63
2022/03/22 08:23:17;;;;;;;20.65;10.85;;;13.70;32.60;;;;;;5094625;28;20024;-63
2022/03/22 08:25:43;;;;;;;15.35;11.73;;;13.90;32.60;;;;;;5095188;28;20422;-63
2022/03/22 08:28:10;;;;;;;14.95;10.68;;;13.90;32.30;;;;;;5094907;28;20028;-62
2022/03/22 08:30:38;;;;;;;15.82;10.65;;;13.80;32.00;;;;;;5094692;28;20024;-63
2022/03/22 08:33:07;;;;;;;18.83;11.70;;;13.90;31.60;;;;;;5094832;28;20407;-63
2022/03/22 08:35:34;;;;;;;18.92;10.27;;;14.00;31.40;;;;;;5094710;28;20050;-62
2022/03/22 08:37:59;;;;;;;16.13;10.45;;;14.30;31.20;;;;;;5094817;28;20376;-63
2022/03/22 08:40:26;;;;;;;14.68;11.10;;;14.30;31.00;;;;;;5094163;28;20032;-63
2022/03/22 08:42:53;;;;;;;17.73;11.13;;;14.20;30.80;;;;;;5093210;28;20027;-63
2022/03/22 08:45:24;;;;;;;18.17;11.07;;;14.30;31.20;;;;;;5093462;28;20028;-63
2022/03/22 08:47:52;;;;;;;16.92;11.02;;;14.30;30.80;;;;;;5094892;28;20369;-63
2022/03/22 08:50:21;;;;;;;17.00;9.88;;;14.80;30.60;;;;;;5094333;28;20031;-63
2022/03/22 08:52:48;;;;;;;15.23;9.52;;;14.80;30.10;;;;;;5092956;28;20039;-63
2022/03/22 08:55:15;;;;;;;14.50;9.95;;;15.00;30.10;;;;;;5094560;28;20483;-63
2022/03/22 08:57:42;;;;;;;15.43;10.52;;;15.20;30.00;;;;;;5093212;28;20375;-63
2022/03/22 09:00:11;;;;;;;17.35;10.80;;;15.70;29.70;;;;;;5094684;28;20028;-63
2022/03/22 09:02:37;;;;;;;18.07;11.23;;;16.10;29.30;;;;;;5092219;28;20024;-63
2022/03/22 09:07:50;;;;;;;16.92;10.57;;;17.00;28.90;;;;;;5093741;28;20059;-63
2022/03/22 09:10:19;;;;;;;16.15;9.90;;;17.40;28.10;;;;;;5093128;28;20028;-62
2022/03/22 09:12:44;;;;;;;13.90;10.00;;;17.70;27.40;;;;;;5092524;28;20028;-63
2022/03/22 09:15:11;;;;;;;15.50;9.63;;;17.50;26.80;;;;;;5094698;28;20036;-62
2022/03/22 09:17:37;;;;;;;17.15;9.85;;;17.50;26.60;;;;;;5093944;28;20034;-63
2022/03/22 09:20:04;;;;;;;14.60;10.25;;;17.60;26.50;;;;;;5094119;28;20032;-63
2022/03/22 09:22:30;;;;;;;14.15;10.20;;;17.30;26.80;;;;;;5093728;28;20085;-63
2022/03/22 09:24:56;;;;;;;13.45;10.30;;;17.10;26.60;;;;;;5093844;28;20032;-62
2022/03/22 09:27:23;;;;;;;13.65;10.75;;;17.20;27.00;;;;;;5093069;28;20027;-63
2022/03/22 09:29:49;;;;;;;16.30;10.73;;;17.80;26.80;;;;;;5092616;28;20035;-63
2022/03/22 09:32:15;;;;;;;14.02;10.80;;;18.30;26.60;;;;;;5093596;28;20040;-63
2022/03/22 09:34:41;;;;;;;15.90;10.88;;;18.50;26.50;;;;;;5093960;28;20073;-64
2022/03/22 09:37:07;;;;;;;15.23;10.88;;;18.80;26.00;;;;;;5092077;28;20032;-63
2022/03/22 09:39:36;;;;;;;14.43;10.63;;;19.00;26.10;;;;;;5092107;28;20063;-63
2022/03/22 09:42:03;;;;;;;13.60;10.73;;;18.30;25.60;;;;;;5093479;28;20024;-63
2022/03/22 09:44:29;;;;;;;18.13;10.88;;;18.10;26.10;;;;;;5092929;28;20032;-63
2022/03/22 09:46:56;;;;;;;19.90;10.23;;;18.60;26.30;;;;;;5092380;28;20433;-63
2022/03/22 09:49:23;;;;;;;15.80;10.35;;;19.30;25.80;;;;;;5092384;28;20456;-63
2022/03/22 09:51:49;;;;;;;10.60;9.00;;;18.90;25.70;;;;;;5093689;28;20035;-63
2022/03/22 09:54:20;;;;;;;14.18;9.63;;;18.50;25.10;;;;;;5093825;28;20020;-64
2022/03/22 09:56:47;;;;;;;12.50;9.98;;;18.00;25.90;;;;;;5092855;28;20054;-63
2022/03/22 09:59:17;;;;;;;12.85;8.73;;;18.20;25.40;;;;;;5091706;28;20071;-62
2022/03/22 10:01:44;;;;;;;12.15;10.07;;;18.60;25.70;;;;;;5093475;28;20040;-62
2022/03/22 10:04:14;;;;;;;14.32;9.45;;;18.90;25.10;;;;;;5093449;28;20039;-60
2022/03/22 10:06:47;;;;;;;10.45;8.88;;;18.50;25.20;;;;;;5093890;28;20020;-60
2022/03/22 10:09:13;;;;;;;12.90;9.43;;;18.60;25.10;;;;;;5093149;28;20487;-60
2022/03/22 10:11:43;;;;;;;13.35;9.40;;;18.20;25.30;;;;;;5093259;28;20047;-61
2022/03/22 10:14:10;;;;;;;9.95;8.43;;;18.20;25.20;;;;;;5091630;28;20082;-61
2022/03/22 10:16:46;;;;;;;12.50;8.95;;;18.00;25.30;;;;;;5093468;28;20077;-61
2022/03/22 10:19:26;;;;;;;19.30;9.50;;;17.60;25.70;;;;;;5093393;28;20034;-61
2022/03/22 10:21:53;;;;;;;10.65;9.50;;;17.90;26.00;;;;;;5092273;28;20062;-60
2022/03/22 10:24:20;;;;;;;18.65;8.55;;;17.90;25.30;;;;;;5095223;28;20032;-62
2022/03/22 10:26:46;;;;;;;15.60;9.02;;;18.10;25.30;;;;;;5097060;28;20051;-59
2022/03/22 10:29:16;;;;;;;11.50;9.13;;;18.60;25.60;;;;;;5097020;28;20028;-61
2022/03/22 10:31:43;;;;;;;11.63;8.70;;;19.10;24.90;;;;;;5096747;28;20032;-61
2022/03/22 10:34:11;;;;;;;10.93;7.88;;;19.20;24.60;;;;;;5095553;28;20111;-59
2022/03/22 10:36:39;;;;;;;11.00;7.90;;;18.70;24.10;;;;;;5096788;28;20028;-61
2022/03/22 10:39:10;;;;;;;15.07;7.55;;;17.80;24.50;;;;;;5095904;28;20375;-60
2022/03/22 10:41:44;;;;;;;10.35;7.75;;;18.20;24.60;;;;;;5096571;28;20060;-60
2022/03/22 10:44:20;;;;;;;18.23;8.05;;;18.70;24.00;;;;;;5096526;28;20554;-60
2022/03/22 10:46:47;;;;;;;22.48;8.50;;;18.40;24.80;;;;;;5097177;28;20044;-61
2022/03/22 10:49:18;;;;;;;8.85;7.20;;;18.80;24.70;;;;;;5096367;28;20093;-60
2022/03/22 10:51:47;;;;;;;12.15;7.13;;;19.10;23.60;;;;;;5096494;28;20028;-61
2022/03/22 10:54:18;;;;;;;8.95;6.50;;;18.90;23.70;;;;;;5096819;28;20043;-59
2022/03/22 10:56:48;;;;;;;11.52;7.70;;;19.90;24.20;;;;;;5096487;28;20102;-60
2022/03/22 10:59:16;;;;;;;11.00;7.10;;;20.60;23.00;;;;;;5095670;28;20097;-59
2022/03/22 11:01:43;;;;;;;8.45;7.25;;;19.70;23.20;;;;;;5096276;28;20028;-60
2022/03/22 11:04:09;;;;;;;8.68;6.57;;;19.70;23.40;;;;;;5095086;28;20353;-60
2022/03/22 11:06:37;;;;;;;9.68;7.13;;;19.50;23.10;;;;;;5096047;28;20032;-61
2022/03/22 11:09:03;;;;;;;12.40;7.10;;;19.00;23.80;;;;;;5096007;28;20044;-62
2022/03/22 11:11:33;;;;;;;10.90;8.38;;;20.10;23.60;;;;;;5094766;28;20456;-61
2022/03/22 11:13:59;;;;;;;9.48;7.07;;;19.50;23.10;;;;;;5096121;28;20032;-61
2022/03/22 11:16:31;;;;;;;16.85;7.93;;;19.70;23.40;;;;;;5096140;28;20028;-61
2022/03/22 11:18:59;;;;;;;10.35;7.55;;;20.00;23.10;;;;;;5094487;28;20028;-61
2022/03/22 11:21:26;;;;;;;10.40;8.10;;;19.50;23.30;;;;;;5094643;28;20035;-59
2022/03/22 11:24:03;;;;;;;8.88;7.28;;;20.40;23.10;;;;;;5094801;28;20205;-59
2022/03/22 11:26:29;;;;;;;8.95;7.43;;;20.60;23.30;;;;;;5096067;28;20035;-62
2022/03/22 11:28:55;;;;;;;12.00;7.15;;;20.60;22.80;;;;;;5096117;28;20024;-60
2022/03/22 11:31:26;;;;;;;11.45;7.72;;;20.50;23.00;;;;;;5095295;28;20169;-61
2022/03/22 11:34:11;;;;;;;12.02;7.88;;;20.90;22.90;;;;;;5096165;28;20031;-61
2022/03/22 11:36:53;;;;;;;10.48;7.00;;;20.90;22.50;;;;;;5094307;28;20375;-59
2022/03/22 11:45:32;;;;;;;11.07;7.97;;;19.10;23.60;;;;;;5095249;28;20574;-60
2022/03/22 11:48:07;;;;;;;9.32;7.18;;;19.60;23.60;;;;;;5093828;28;20123;-67
2022/03/22 11:50:34;;;;;;;8.95;7.80;;;20.60;23.50;;;;;;5094086;28;20024;-68
2022/03/22 11:53:01;;;;;;;10.75;7.35;;;20.80;23.40;;;;;;5095058;28;20039;-67
2022/03/22 11:55:27;;;;;;;13.45;7.57;;;20.70;23.60;;;;;;5092963;28;20032;-69
2022/03/22 11:57:58;;;;;;;9.70;7.47;;;21.30;23.10;;;;;;5094979;28;20028;-66
2022/03/22 12:00:58;;;;;;;14.38;7.20;;;20.70;23.40;;;;;;5093901;28;20035;-69
2022/03/22 12:03:33;;;;;;;13.57;7.88;;;21.50;23.10;;;;;;5093715;28;20107;-70
2022/03/22 12:06:10;;;;;;;12.00;7.93;;;21.60;23.00;;;;;;5095263;28;20032;-69
2022/03/22 12:08:36;;;;;;;9.73;7.22;;;22.40;22.50;;;;;;5094631;28;20070;-69
2022/03/22 12:11:01;;;;;;;9.18;7.10;;;22.00;22.60;;;;;;5093596;28;20472;-69
2022/03/22 12:13:30;;;;;;;10.38;7.57;;;22.30;22.50;;;;;;5094449;28;20036;-69
2022/03/22 12:16:00;;;;;;;12.57;8.25;;;22.20;22.00;;;;;;5095259;28;20043;-68
2022/03/22 12:18:30;;;;;;;9.95;7.28;;;21.90;23.00;;;;;;5094213;28;20028;-68
2022/03/22 12:20:57;;;;;;;8.57;7.68;;;21.10;22.40;;;;;;5094657;28;20027;-68
2022/03/22 12:23:23;;;;;;;12.43;7.72;;;21.90;22.70;;;;;;5094124;28;20038;-69
2022/03/22 12:25:49;;;;;;;9.23;7.38;;;23.00;22.20;;;;;;5092882;28;20024;-72
2022/03/22 12:28:16;;;;;;;9.10;7.25;;;23.40;21.70;;;;;;5094236;28;20069;-69
2022/03/22 12:30:44;;;;;;;9.55;8.23;;;22.70;21.80;;;;;;5094365;28;20115;-69
2022/03/22 12:33:13;;;;;;;9.38;7.50;;;22.50;21.80;;;;;;5094493;28;20103;-69
2022/03/22 12:35:40;;;;;;;8.93;7.28;;;21.80;22.30;;;;;;5093018;28;20061;-69
2022/03/22 12:38:07;;;;;;;10.63;7.55;;;21.60;22.30;;;;;;5094559;28;20031;-69
2022/03/22 12:40:34;;;;;;;11.25;7.15;;;22.10;22.50;;;;;;5092998;28;20123;-69
2022/03/22 12:43:00;;;;;;;9.30;7.55;;;22.20;22.40;;;;;;5093396;28;20165;-69
2022/03/22 12:48:50;;;;;;;12.65;7.63;;;22.20;22.60;;;;;;5093684;28;20058;-69
2022/03/22 12:51:16;;;;;;;11.48;7.40;;;22.00;22.40;;;;;;5093519;28;20028;-69
2022/03/22 12:53:42;;;;;;;9.98;7.43;;;21.50;22.40;;;;;;5093507;28;20105;-67
2022/03/22 12:56:18;;;;;;;14.70;7.32;;;22.20;22.30;;;;;;5094014;28;20022;-62
2022/03/22 12:58:44;;;;;;;14.68;7.95;;;22.40;22.60;;;;;;5094052;28;20414;-61
2022/03/22 13:01:10;;;;;;;10.90;7.70;;;22.70;22.30;;;;;;5093829;28;20024;-59
2022/03/22 13:03:36;;;;;;;9.13;7.07;;;21.80;22.20;;;;;;5092644;28;20047;-60
2022/03/22 13:06:02;;;;;;;8.23;6.63;;;21.80;22.80;;;;;;5093805;28;20028;-59
2022/03/22 13:11:29;;;;;;;9.77;7.35;;;20.70;23.30;;;;;;5092874;28;20104;-62
2022/03/22 13:16:57;;;;;;;10.73;7.70;;;22.60;22.60;;;;;;5093766;28;20094;-61